Aérodrome :
LOGIN :

S'inscrire | Disclaimer

   EN    FR    IT 

 










Légende :    VFR   VFR Marginal   IFR   IFR Intensif   IFR Très Intensif
Visi : 
Plafond : 
>= 8 km
>= 3000ft
5 à 8 km
1000 à 3000 ft
1500m à 5 km
500 à 1000 ft
800 à 1500m
200 à 500 ft
< 800m
< 200 ft
Symboles :   Orages  Brouillard  Fortes neiges  Fortes précipitations  Vent > 20 kt
SIGMETs :   Divers  Orages  Givrage  Turbulence  Onde Orograph.  Cendres Volcan.






- Altitude de l'aérodrome : 295 ft
- Code IATA : ORN


DAOO - Es senia - Oran

DERNIER METAR :
  • 250200Z 30008KT 9999 SCT026 20/17 Q1023

METARs EXPIRÉS :
  • 250100Z 34003KT 9999 SCT026 20/17 Q1023
  • 250000Z 32003KT 9999 SCT026 20/17 Q1023

TAF TAF DAOO
Valide du 25 à 00h jusqu'au 26 à 00h UTC


242300Z 2500/2524 VRB02KT 9999 SCT026
PROB40
TEMPO 2502/2507 3000 BR SCT010
BECMG 2510/2513 02012KT
BECMG 2521/2524 VRB02KT



MET'MAP, la Météo Aéronautique d'un coup d'oeil ! - Copyright ORBIFLY Décembre 2007 - Disclaimer

ORBIFLY MET'MAP TEAM :

Programmation & Développement : Alexandra Zaïnal
Sur une idée originale de : Baudouin d'Aumeries
Assistance à la programmation : Marc-Olivier Méhu
Soutien technique & logistique : Manuel Goepfert

Contact : metmap@orbifly.com




SOURCES & CREDITS :

   NOAA